createdAt,value
2022-11-30T00:01:23.423Z,5.50
2022-11-30T00:03:54.989Z,5.38
2022-11-30T00:06:23.729Z,5.97
2022-11-30T00:08:55.961Z,7.60
2022-11-30T00:11:25.539Z,5.60
2022-11-30T00:13:53.190Z,5.80
2022-11-30T00:16:20.917Z,5.70
2022-11-30T00:18:48.320Z,5.95
2022-11-30T00:21:17.759Z,6.05
2022-11-30T00:23:46.754Z,5.45
2022-11-30T00:26:16.728Z,5.32
2022-11-30T00:28:46.213Z,4.97
2022-11-30T00:31:16.138Z,5.22
2022-11-30T00:33:44.114Z,5.57
2022-11-30T00:36:18.000Z,5.30
2022-11-30T00:38:46.186Z,5.63
2022-11-30T00:41:13.586Z,6.03
2022-11-30T00:43:41.040Z,5.78
2022-11-30T00:46:11.959Z,5.18
2022-11-30T00:48:40.364Z,5.50
2022-11-30T00:51:09.994Z,5.95
2022-11-30T00:53:38.423Z,5.20
2022-11-30T00:56:06.171Z,5.57
2022-11-30T00:58:33.545Z,4.68
2022-11-30T01:01:01.418Z,4.43
2022-11-30T01:03:28.789Z,4.93
2022-11-30T01:05:56.064Z,5.40
2022-11-30T01:08:26.279Z,4.75
2022-11-30T01:10:58.189Z,6.00
2022-11-30T01:13:25.814Z,5.45
2022-11-30T01:15:53.072Z,6.47
2022-11-30T01:18:20.431Z,6.00
2022-11-30T01:20:47.844Z,5.22
2022-11-30T01:23:16.532Z,5.45
2022-11-30T01:25:53.261Z,5.22
2022-11-30T01:28:20.397Z,5.55
2022-11-30T01:31:01.030Z,5.85
2022-11-30T01:33:28.493Z,6.28
2022-11-30T01:36:12.309Z,5.85
2022-11-30T01:38:42.732Z,4.47
2022-11-30T01:41:13.953Z,4.45
2022-11-30T01:43:43.433Z,4.50
2022-11-30T01:46:37.473Z,5.13
2022-11-30T01:49:10.855Z,4.00
2022-11-30T01:51:41.447Z,3.70
2022-11-30T01:54:11.922Z,4.82
2022-11-30T01:56:51.191Z,3.90
2022-11-30T01:59:21.179Z,4.32
2022-11-30T02:01:48.772Z,3.92
2022-11-30T02:04:28.669Z,4.20
2022-11-30T02:06:58.390Z,3.70
2022-11-30T02:09:28.172Z,4.22
2022-11-30T02:11:56.614Z,3.95
2022-11-30T02:14:29.886Z,4.35
2022-11-30T02:17:03.209Z,4.32
2022-11-30T02:19:52.022Z,4.32
2022-11-30T02:22:44.123Z,4.90
2022-11-30T02:25:27.924Z,4.70
2022-11-30T02:30:47.720Z,4.65
2022-11-30T02:33:18.928Z,4.10
2022-11-30T02:35:54.557Z,5.65
2022-11-30T02:38:25.177Z,4.70
2022-11-30T02:40:53.128Z,4.95
2022-11-30T02:43:23.237Z,4.30
2022-11-30T02:46:09.561Z,4.80
2022-11-30T02:48:57.108Z,4.70
2022-11-30T02:51:30.446Z,6.70
2022-11-30T02:53:58.891Z,5.07
2022-11-30T02:56:27.506Z,5.47
2022-11-30T02:58:54.778Z,4.65
2022-11-30T03:01:22.640Z,5.47
2022-11-30T03:03:50.028Z,5.32
2022-11-30T03:06:17.178Z,5.97
2022-11-30T03:08:44.758Z,5.25
2022-11-30T03:11:12.138Z,5.82
2022-11-30T03:13:39.401Z,5.45
2022-11-30T03:16:09.248Z,5.65
2022-11-30T03:18:37.441Z,6.07
2022-11-30T03:21:10.791Z,6.10
2022-11-30T03:26:08.311Z,5.18
2022-11-30T03:28:37.124Z,6.50
2022-11-30T03:31:05.379Z,5.70
2022-11-30T03:33:32.542Z,4.95
2022-11-30T03:36:09.408Z,6.32
2022-11-30T03:38:37.599Z,5.30
2022-11-30T03:41:19.492Z,5.10
2022-11-30T03:43:47.622Z,5.18
2022-11-30T03:46:15.320Z,5.28
2022-11-30T03:48:45.126Z,5.15
2022-11-30T03:51:13.362Z,4.72
2022-11-30T03:53:41.346Z,5.55
2022-11-30T03:56:10.480Z,5.38
2022-11-30T03:58:38.517Z,5.22
2022-11-30T04:01:14.892Z,4.85
2022-11-30T04:03:44.437Z,5.20
2022-11-30T04:06:13.610Z,5.13
2022-11-30T04:08:41.702Z,5.13
2022-11-30T04:11:09.378Z,5.60
2022-11-30T04:13:38.468Z,5.50
2022-11-30T04:16:06.698Z,5.45
2022-11-30T04:18:35.600Z,5.82
2022-11-30T04:21:03.270Z,5.68
2022-11-30T04:23:32.779Z,5.82
2022-11-30T04:26:03.539Z,5.93
2022-11-30T04:28:30.626Z,6.30
2022-11-30T04:31:00.648Z,6.03
2022-11-30T04:33:28.767Z,6.53
2022-11-30T04:35:59.734Z,6.55
2022-11-30T04:38:27.622Z,6.82
2022-11-30T04:40:54.928Z,6.43
2022-11-30T04:43:23.040Z,6.22
2022-11-30T04:45:50.418Z,5.75
2022-11-30T04:48:19.985Z,6.07
2022-11-30T04:50:47.330Z,5.20
2022-11-30T04:53:14.651Z,5.88
2022-11-30T04:55:42.055Z,5.63
2022-11-30T04:58:09.676Z,5.78
2022-11-30T05:00:37.411Z,5.30
2022-11-30T05:03:04.690Z,5.60
2022-11-30T05:05:31.964Z,5.72
2022-11-30T05:08:00.383Z,5.40
2022-11-30T05:10:28.823Z,5.65
2022-11-30T05:12:57.362Z,5.60
2022-11-30T05:15:24.913Z,5.88
2022-11-30T05:17:52.183Z,5.25
2022-11-30T05:20:19.415Z,5.47
2022-11-30T05:22:46.732Z,5.25
2022-11-30T05:25:14.034Z,5.50
2022-11-30T05:27:41.383Z,5.30
2022-11-30T05:30:10.826Z,5.38
2022-11-30T05:32:45.243Z,5.05
2022-11-30T05:35:13.626Z,4.85
2022-11-30T05:37:41.387Z,5.90
2022-11-30T05:40:09.399Z,4.80
2022-11-30T05:42:36.583Z,5.13
2022-11-30T05:45:04.060Z,5.55
2022-11-30T05:47:31.184Z,5.30
2022-11-30T05:49:58.404Z,4.90
2022-11-30T05:52:25.665Z,4.47
2022-11-30T05:54:52.922Z,4.57
2022-11-30T05:57:21.117Z,4.85
2022-11-30T05:59:48.608Z,4.43
2022-11-30T06:02:16.207Z,4.05
2022-11-30T06:04:44.222Z,3.72
2022-11-30T06:07:12.370Z,3.88
2022-11-30T06:09:40.557Z,3.65
2022-11-30T06:12:08.407Z,3.13
2022-11-30T06:14:36.026Z,3.35
2022-11-30T06:17:04.467Z,3.17
2022-11-30T06:19:31.590Z,3.20
2022-11-30T06:21:59.138Z,3.10
2022-11-30T06:24:26.723Z,2.45
2022-11-30T06:26:54.027Z,2.25
2022-11-30T06:29:21.468Z,2.60
2022-11-30T06:31:48.616Z,2.65
2022-11-30T06:34:16.877Z,2.13
2022-11-30T06:36:44.290Z,2.17
2022-11-30T06:39:12.763Z,2.45
2022-11-30T06:41:41.072Z,2.20
2022-11-30T06:44:10.011Z,2.55
2022-11-30T06:46:37.529Z,2.53
2022-11-30T06:49:04.754Z,3.00
2022-11-30T06:51:34.346Z,3.10
2022-11-30T06:54:01.805Z,3.53
2022-11-30T06:56:29.179Z,3.38
2022-11-30T06:58:56.385Z,3.45
2022-11-30T07:01:23.965Z,3.58
2022-11-30T07:03:51.460Z,3.67
2022-11-30T07:06:18.995Z,3.60
2022-11-30T07:08:46.248Z,4.43
2022-11-30T07:11:13.854Z,3.83
2022-11-30T07:13:41.192Z,3.90
2022-11-30T07:16:11.375Z,5.43
2022-11-30T07:18:38.747Z,4.68
2022-11-30T07:21:06.939Z,4.95
2022-11-30T07:23:56.727Z,4.65
2022-11-30T07:26:26.056Z,5.68
2022-11-30T07:28:55.551Z,6.47
2022-11-30T07:31:28.929Z,5.72
2022-11-30T07:33:57.683Z,5.90
2022-11-30T07:36:27.165Z,5.28
2022-11-30T07:38:54.440Z,6.03
2022-11-30T07:41:22.193Z,5.28
2022-11-30T07:43:49.786Z,5.97
2022-11-30T07:46:17.788Z,5.47
2022-11-30T07:48:46.763Z,6.00
2022-11-30T07:51:23.610Z,6.00
2022-11-30T07:53:51.302Z,5.80
2022-11-30T07:56:20.737Z,5.95
2022-11-30T07:58:51.394Z,6.68
2022-11-30T08:01:21.948Z,6.55
2022-11-30T08:03:50.924Z,6.10
2022-11-30T08:06:24.052Z,5.93
2022-11-30T08:08:53.940Z,6.13
2022-11-30T08:11:24.476Z,6.18
2022-11-30T08:13:51.940Z,5.63
2022-11-30T08:16:22.011Z,6.13
2022-11-30T08:18:49.523Z,5.57
2022-11-30T08:21:19.716Z,5.13
2022-11-30T08:23:53.399Z,5.07
2022-11-30T08:26:23.327Z,5.28
2022-11-30T08:28:51.843Z,5.28
2022-11-30T08:31:25.015Z,5.15
2022-11-30T08:34:00.076Z,5.30
2022-11-30T08:36:29.937Z,5.80
2022-11-30T08:38:58.545Z,5.13
2022-11-30T08:41:26.806Z,4.85
2022-11-30T08:43:54.938Z,5.18
2022-11-30T08:49:21.615Z,5.50
2022-11-30T08:54:42.970Z,5.45
2022-11-30T08:57:10.366Z,6.10
2022-11-30T08:59:38.049Z,5.50
2022-11-30T09:02:07.412Z,5.18
2022-11-30T09:04:34.884Z,4.72
2022-11-30T09:07:02.065Z,4.93
2022-11-30T09:09:29.652Z,5.18
2022-11-30T09:11:56.784Z,4.68
2022-11-30T09:14:24.010Z,5.00
2022-11-30T09:16:51.478Z,5.25
2022-11-30T09:19:18.751Z,5.88
2022-11-30T09:21:51.509Z,5.65
2022-11-30T09:24:21.477Z,5.93
2022-11-30T09:26:48.881Z,5.63
2022-11-30T09:29:16.273Z,5.35
2022-11-30T09:31:43.814Z,5.93
2022-11-30T09:34:12.441Z,5.40
2022-11-30T09:36:40.020Z,5.10
2022-11-30T09:39:11.025Z,5.65
2022-11-30T09:41:54.991Z,5.10
2022-11-30T09:44:46.716Z,5.50
2022-11-30T09:47:35.314Z,5.28
2022-11-30T09:50:11.426Z,5.60
2022-11-30T09:52:43.351Z,5.88
2022-11-30T09:55:15.455Z,5.47
2022-11-30T09:57:49.149Z,4.78
2022-11-30T10:00:19.293Z,5.10
2022-11-30T10:02:46.988Z,4.68
2022-11-30T10:05:35.825Z,4.82
2022-11-30T10:08:37.625Z,4.70
2022-11-30T10:11:18.823Z,4.70
2022-11-30T10:14:04.755Z,4.55
2022-11-30T10:16:49.960Z,5.57
2022-11-30T10:19:34.442Z,4.60
2022-11-30T10:22:17.030Z,5.22
2022-11-30T10:24:54.068Z,5.18
2022-11-30T10:27:43.099Z,5.07
2022-11-30T10:30:27.305Z,5.00
2022-11-30T10:32:57.731Z,5.30
2022-11-30T10:35:37.649Z,5.38
2022-11-30T10:38:23.206Z,5.20
2022-11-30T10:40:59.727Z,5.75
2022-11-30T10:43:30.127Z,5.78
2022-11-30T10:45:57.478Z,5.80
2022-11-30T10:48:37.154Z,6.00
2022-11-30T10:51:04.845Z,6.32
2022-11-30T10:53:33.746Z,5.93
2022-11-30T10:56:06.598Z,6.00
2022-11-30T10:58:39.450Z,6.10
2022-11-30T11:01:10.138Z,6.40
2022-11-30T11:03:38.626Z,6.18
2022-11-30T11:06:17.527Z,6.40
2022-11-30T11:08:47.344Z,7.28
2022-11-30T11:11:39.319Z,6.53
2022-11-30T11:14:17.567Z,6.80
2022-11-30T11:17:00.679Z,6.93
2022-11-30T11:19:44.272Z,6.88
2022-11-30T11:24:51.368Z,5.88
2022-11-30T11:27:27.755Z,6.63
2022-11-30T11:30:33.397Z,6.57
2022-11-30T11:33:28.930Z,6.13
2022-11-30T11:36:14.912Z,5.80
2022-11-30T11:38:43.963Z,6.40
2022-11-30T11:41:44.542Z,6.32
2022-11-30T11:44:11.745Z,6.85
2022-11-30T11:46:56.088Z,5.85
2022-11-30T11:49:26.368Z,5.60
2022-11-30T11:52:04.414Z,5.95
2022-11-30T11:54:40.856Z,6.20
2022-11-30T11:57:15.455Z,5.90
2022-11-30T12:00:01.469Z,5.60
2022-11-30T12:03:02.231Z,6.30
2022-11-30T12:05:38.036Z,5.57
2022-11-30T12:08:17.436Z,5.80
2022-11-30T12:11:03.386Z,5.38
2022-11-30T12:13:38.661Z,7.03
2022-11-30T12:16:14.898Z,7.68
2022-11-30T12:18:48.024Z,10.05
2022-11-30T12:21:25.408Z,9.48
2022-11-30T12:24:20.808Z,5.65
2022-11-30T12:26:58.690Z,5.93
2022-11-30T12:29:42.842Z,6.95
2022-11-30T12:32:13.272Z,6.43
2022-11-30T12:35:12.628Z,7.50
2022-11-30T12:37:52.527Z,8.13
2022-11-30T12:40:41.835Z,7.88
2022-11-30T12:43:41.344Z,7.25
2022-11-30T12:46:37.987Z,9.35
2022-11-30T12:49:30.465Z,8.57
2022-11-30T12:52:23.933Z,6.97
2022-11-30T12:55:15.785Z,7.82
2022-11-30T12:58:06.580Z,7.35
2022-11-30T13:01:13.358Z,7.25
2022-11-30T13:03:51.393Z,8.05
2022-11-30T13:06:28.112Z,7.22
2022-11-30T13:09:10.805Z,6.47
2022-11-30T13:11:41.214Z,6.85
2022-11-30T13:14:21.609Z,6.65
2022-11-30T13:16:56.796Z,7.00
2022-11-30T13:19:26.937Z,6.45
2022-11-30T13:22:00.176Z,6.78
2022-11-30T13:24:34.970Z,6.70
2022-11-30T13:27:41.700Z,5.97
2022-11-30T13:30:32.517Z,6.32
2022-11-30T13:33:34.846Z,5.47
2022-11-30T13:36:07.950Z,4.95
2022-11-30T13:38:37.529Z,5.03
2022-11-30T13:41:08.386Z,4.65
2022-11-30T13:43:42.912Z,5.15
2022-11-30T13:46:29.031Z,4.97
2022-11-30T13:49:35.224Z,5.18
2022-11-30T13:52:23.468Z,4.75
2022-11-30T13:54:57.679Z,4.50
2022-11-30T13:59:56.823Z,4.30
2022-11-30T14:02:32.538Z,3.60
2022-11-30T14:05:19.239Z,4.22
2022-11-30T14:08:10.333Z,5.13
2022-11-30T14:11:06.410Z,6.25
2022-11-30T14:13:34.085Z,5.43
2022-11-30T14:16:03.224Z,4.60
2022-11-30T14:18:40.182Z,4.60
2022-11-30T14:21:27.070Z,5.10
2022-11-30T14:24:01.950Z,5.20
2022-11-30T14:26:42.789Z,3.83
2022-11-30T14:29:23.834Z,5.28
2022-11-30T14:32:08.463Z,4.05
2022-11-30T14:34:39.414Z,4.47
2022-11-30T14:37:15.945Z,4.05
2022-11-30T14:39:48.605Z,4.50
2022-11-30T14:42:28.915Z,3.22
2022-11-30T14:44:57.059Z,4.20
2022-11-30T14:47:26.099Z,3.90
2022-11-30T14:49:56.880Z,4.13
2022-11-30T14:52:39.594Z,5.38
2022-11-30T14:55:24.950Z,4.45
2022-11-30T14:58:15.265Z,4.45
2022-11-30T15:00:45.272Z,4.15
2022-11-30T15:03:27.780Z,3.30
2022-11-30T15:05:58.646Z,3.25
2022-11-30T15:08:34.537Z,3.00
2022-11-30T15:11:12.253Z,3.22
2022-11-30T15:13:46.436Z,3.35
2022-11-30T15:16:30.768Z,3.00
2022-11-30T15:18:59.906Z,2.78
2022-11-30T15:21:32.138Z,2.75
2022-11-30T15:24:02.829Z,2.88
2022-11-30T15:26:39.199Z,2.80
2022-11-30T15:29:17.155Z,3.10
2022-11-30T15:31:50.380Z,2.63
2022-11-30T15:34:27.229Z,2.20
2022-11-30T15:36:56.326Z,2.90
2022-11-30T15:39:26.147Z,2.40
2022-11-30T15:41:56.212Z,2.53
2022-11-30T15:44:47.793Z,3.38
2022-11-30T15:47:35.826Z,2.97
2022-11-30T15:50:20.867Z,2.47
2022-11-30T15:52:51.142Z,2.75
2022-11-30T15:55:41.045Z,3.85
2022-11-30T15:58:25.750Z,5.20
2022-11-30T16:01:25.581Z,6.90
2022-11-30T16:03:56.424Z,12.32
2022-11-30T16:06:37.015Z,20.33
2022-11-30T16:09:23.430Z,23.70
2022-11-30T16:11:54.895Z,22.50
2022-11-30T16:14:22.640Z,17.20
2022-11-30T16:16:51.602Z,13.80
2022-11-30T16:19:19.064Z,11.15
2022-11-30T16:21:46.362Z,9.18
2022-11-30T16:24:15.856Z,6.55
2022-11-30T16:26:52.248Z,6.43
2022-11-30T16:29:20.598Z,7.90
2022-11-30T16:31:48.141Z,8.52
2022-11-30T16:34:15.714Z,9.40
2022-11-30T16:36:43.016Z,6.88
2022-11-30T16:39:13.627Z,4.78
2022-11-30T16:41:41.553Z,5.00
2022-11-30T16:44:14.641Z,4.13
2022-11-30T16:46:42.156Z,5.40
2022-11-30T16:49:09.782Z,5.47
2022-11-30T16:51:37.751Z,5.95
2022-11-30T16:54:05.023Z,5.95
2022-11-30T16:56:32.758Z,5.03
2022-11-30T16:59:00.295Z,5.20
2022-11-30T17:01:35.558Z,4.72
2022-11-30T17:04:21.912Z,4.30
2022-11-30T17:06:52.232Z,5.15
2022-11-30T17:09:22.179Z,5.40
2022-11-30T17:11:51.007Z,6.03
2022-11-30T17:14:19.570Z,5.68
2022-11-30T17:16:47.492Z,5.38
2022-11-30T17:19:14.791Z,5.57
2022-11-30T17:21:45.020Z,5.65
2022-11-30T17:24:13.692Z,6.00
2022-11-30T17:26:41.113Z,7.53
2022-11-30T17:29:08.786Z,8.43
2022-11-30T17:31:35.997Z,9.68
2022-11-30T17:34:04.031Z,9.85
2022-11-30T17:36:31.814Z,11.25
2022-11-30T17:38:59.306Z,10.48
2022-11-30T17:41:27.480Z,10.98
2022-11-30T17:43:54.505Z,12.35
2022-11-30T17:46:22.683Z,12.07
2022-11-30T17:48:50.041Z,11.23
2022-11-30T17:51:18.338Z,11.48
2022-11-30T17:53:45.643Z,11.90
2022-11-30T17:56:17.311Z,11.73
2022-11-30T17:58:45.743Z,11.05
2022-11-30T18:01:21.497Z,9.23
2022-11-30T18:03:49.108Z,7.90
2022-11-30T18:06:16.682Z,7.80
2022-11-30T18:08:44.281Z,6.80
2022-11-30T18:11:14.461Z,6.88
2022-11-30T18:13:42.344Z,6.30
2022-11-30T18:16:15.643Z,6.07
2022-11-30T18:18:47.776Z,6.65
2022-11-30T18:21:17.954Z,6.88
2022-11-30T18:23:45.321Z,7.00
2022-11-30T18:26:17.073Z,9.15
2022-11-30T18:28:44.976Z,8.60
2022-11-30T18:31:12.749Z,8.63
2022-11-30T18:33:40.275Z,8.75
2022-11-30T18:36:08.045Z,8.35
2022-11-30T18:38:38.821Z,7.88
2022-11-30T18:41:10.878Z,8.90
2022-11-30T18:43:39.133Z,8.10
2022-11-30T18:46:09.943Z,8.57
2022-11-30T18:48:41.443Z,8.02
2022-11-30T18:51:15.066Z,8.40
2022-11-30T18:56:10.105Z,8.40
2022-11-30T18:58:37.919Z,8.15
2022-11-30T19:01:15.300Z,9.43
2022-11-30T19:03:43.287Z,8.40
2022-11-30T19:06:12.224Z,8.57
2022-11-30T19:08:41.411Z,8.43
2022-11-30T19:11:10.124Z,7.47
2022-11-30T19:13:37.656Z,7.30
2022-11-30T19:16:09.573Z,7.35
2022-11-30T19:18:37.205Z,8.55
2022-11-30T19:21:10.112Z,8.85
2022-11-30T19:23:38.869Z,8.52
2022-11-30T19:26:08.593Z,8.18
2022-11-30T19:28:38.319Z,8.40
2022-11-30T19:31:25.296Z,9.13
2022-11-30T19:33:54.513Z,9.45
2022-11-30T19:36:30.199Z,8.25
2022-11-30T19:39:01.120Z,8.90
2022-11-30T19:41:29.205Z,9.20
2022-11-30T19:44:03.867Z,9.18
2022-11-30T19:46:34.921Z,9.15
2022-11-30T19:49:02.819Z,9.32
2022-11-30T19:51:31.443Z,9.10
2022-11-30T19:54:02.764Z,8.68
2022-11-30T19:56:31.963Z,9.00
2022-11-30T19:59:04.403Z,9.13
2022-11-30T20:04:03.697Z,9.45
2022-11-30T20:06:37.988Z,9.52
2022-11-30T20:09:07.271Z,9.10
2022-11-30T20:11:38.145Z,10.23
2022-11-30T20:14:05.673Z,9.85
2022-11-30T20:16:32.918Z,9.95
2022-11-30T20:19:02.113Z,9.52
2022-11-30T20:21:32.200Z,10.35
2022-11-30T20:24:01.432Z,8.85
2022-11-30T20:26:34.051Z,9.52
2022-11-30T20:29:03.476Z,9.90
2022-11-30T20:31:32.233Z,10.73
2022-11-30T20:34:00.133Z,10.82
2022-11-30T20:36:27.771Z,11.18
2022-11-30T20:38:55.516Z,11.15
2022-11-30T20:41:24.957Z,12.25
2022-11-30T20:43:53.818Z,11.02
2022-11-30T20:46:24.207Z,11.77
2022-11-30T20:48:52.568Z,13.07
2022-11-30T20:51:30.810Z,13.18
2022-11-30T20:54:08.908Z,14.85
2022-11-30T20:56:37.664Z,13.23
2022-11-30T20:59:12.897Z,12.40
2022-11-30T21:01:48.345Z,13.38
2022-11-30T21:04:16.455Z,16.73
2022-11-30T21:06:45.987Z,30.33
2022-11-30T21:09:14.890Z,27.27
2022-11-30T21:11:43.228Z,18.10
2022-11-30T21:14:11.452Z,12.32
2022-11-30T21:16:39.014Z,11.82
2022-11-30T21:19:06.373Z,12.13
2022-11-30T21:21:35.739Z,11.20
2022-11-30T21:24:06.283Z,11.77
2022-11-30T21:26:41.438Z,11.07
2022-11-30T21:29:14.245Z,11.85
2022-11-30T21:31:42.580Z,12.00
2022-11-30T21:34:10.724Z,12.23
2022-11-30T21:36:37.891Z,13.02
2022-11-30T21:39:09.833Z,15.57
2022-11-30T21:41:39.951Z,15.18
2022-11-30T21:44:10.763Z,15.05
2022-11-30T21:46:38.483Z,15.65
2022-11-30T21:49:06.618Z,14.63
2022-11-30T21:51:33.938Z,12.55
2022-11-30T21:54:03.593Z,11.63
2022-11-30T21:56:33.626Z,11.90
2022-11-30T21:59:02.938Z,11.02
2022-11-30T22:01:38.589Z,11.40
2022-11-30T22:04:07.933Z,11.25
2022-11-30T22:06:37.840Z,10.55
2022-11-30T22:09:08.306Z,11.00
2022-11-30T22:11:39.814Z,10.73
2022-11-30T22:14:11.010Z,10.95
2022-11-30T22:16:38.561Z,10.98
2022-11-30T22:19:07.063Z,12.32
2022-11-30T22:21:35.832Z,11.00
2022-11-30T22:24:10.202Z,11.90
2022-11-30T22:26:40.043Z,11.57
2022-11-30T22:29:19.012Z,10.85
2022-11-30T22:31:48.931Z,11.25
2022-11-30T22:34:16.689Z,12.52
2022-11-30T22:36:45.347Z,11.82
2022-11-30T22:39:15.246Z,11.57
2022-11-30T22:41:45.106Z,10.70
2022-11-30T22:44:18.081Z,10.95
2022-11-30T22:46:45.672Z,11.32
2022-11-30T22:49:20.762Z,11.52
2022-11-30T22:51:50.139Z,10.77
2022-11-30T22:54:17.789Z,11.90
2022-11-30T22:56:46.926Z,11.27
2022-11-30T22:59:15.718Z,12.38
2022-11-30T23:01:50.033Z,11.23
2022-11-30T23:04:20.322Z,12.35
2022-11-30T23:06:49.318Z,11.65
2022-11-30T23:09:22.131Z,11.52
2022-11-30T23:11:50.526Z,11.45
2022-11-30T23:14:18.369Z,11.75
2022-11-30T23:16:46.510Z,11.27
2022-11-30T23:19:14.280Z,11.00
2022-11-30T23:21:43.237Z,10.52
2022-11-30T23:24:15.064Z,11.20
2022-11-30T23:26:43.515Z,10.55
2022-11-30T23:29:15.221Z,10.27
2022-11-30T23:31:44.142Z,10.50
2022-11-30T23:34:17.341Z,11.40
2022-11-30T23:36:44.923Z,10.05
2022-11-30T23:39:15.910Z,10.93
2022-11-30T23:41:44.179Z,9.48
2022-11-30T23:44:11.946Z,10.63
2022-11-30T23:46:40.130Z,10.77
2022-11-30T23:49:07.899Z,9.77
2022-11-30T23:51:35.751Z,10.02
2022-11-30T23:54:03.253Z,9.48
2022-11-30T23:56:30.551Z,9.73
2022-11-30T23:58:57.859Z,9.60
